createdAt,value
2018-06-27T00:00:32.405Z,0.00
2018-06-27T00:01:32.400Z,0.00
2018-06-27T00:02:32.386Z,0.00
2018-06-27T00:03:32.375Z,0.00
2018-06-27T00:04:32.370Z,0.00
2018-06-27T00:05:32.402Z,0.00
2018-06-27T00:06:32.350Z,0.00
2018-06-27T00:07:32.341Z,0.00
2018-06-27T00:08:32.324Z,0.00
2018-06-27T00:09:32.308Z,0.00
2018-06-27T00:10:32.305Z,0.00
2018-06-27T00:11:32.316Z,0.00
2018-06-27T00:13:43.736Z,0.00
2018-06-27T00:14:43.708Z,0.00
2018-06-27T00:15:43.697Z,0.00
2018-06-27T00:16:43.708Z,0.00
2018-06-27T00:17:43.675Z,0.00
2018-06-27T00:18:43.669Z,0.00
2018-06-27T00:19:43.660Z,0.00
2018-06-27T00:20:43.647Z,0.00
2018-06-27T00:21:43.662Z,0.00
2018-06-27T00:22:43.621Z,0.00
2018-06-27T00:23:43.615Z,0.00
2018-06-27T00:24:43.600Z,0.00
2018-06-27T00:25:43.588Z,0.00
2018-06-27T00:26:43.591Z,0.00
2018-06-27T00:28:54.786Z,0.00
2018-06-27T00:29:54.750Z,0.00
2018-06-27T00:30:54.749Z,0.00
2018-06-27T00:31:54.758Z,0.00
2018-06-27T00:32:54.721Z,0.00
2018-06-27T00:33:54.742Z,0.00
2018-06-27T00:34:54.700Z,0.00
2018-06-27T00:35:54.684Z,0.00
2018-06-27T00:36:54.704Z,0.00
2018-06-27T00:37:54.669Z,0.00
2018-06-27T00:38:54.646Z,0.00
2018-06-27T00:39:54.645Z,0.00
2018-06-27T00:40:54.632Z,0.00
2018-06-27T00:41:54.644Z,0.00
2018-06-27T00:44:07.392Z,0.00
2018-06-27T00:45:07.363Z,0.00
2018-06-27T00:46:07.378Z,0.00
2018-06-27T00:47:07.343Z,0.00
2018-06-27T00:48:07.334Z,0.00
2018-06-27T00:49:07.320Z,0.00
2018-06-27T00:50:07.317Z,0.00
2018-06-27T00:51:07.331Z,0.00
2018-06-27T00:52:07.286Z,0.00
2018-06-27T00:53:07.278Z,0.00
2018-06-27T00:54:07.262Z,0.00
2018-06-27T00:55:07.258Z,0.00
2018-06-27T00:56:07.263Z,0.00
2018-06-27T00:57:07.230Z,0.00
2018-06-27T00:59:18.615Z,0.00
2018-06-27T01:00:18.580Z,0.00
2018-06-27T01:01:18.592Z,0.00
2018-06-27T01:02:18.560Z,0.00
2018-06-27T01:03:18.545Z,0.00
2018-06-27T01:04:18.541Z,0.00
2018-06-27T01:05:18.530Z,0.00
2018-06-27T01:06:18.549Z,0.00
2018-06-27T01:07:18.496Z,0.00
2018-06-27T01:08:18.499Z,0.00
2018-06-27T01:09:18.484Z,0.00
2018-06-27T01:10:18.464Z,0.00
2018-06-27T01:11:18.457Z,0.00
2018-06-27T01:13:29.791Z,0.00
2018-06-27T01:14:29.759Z,0.00
2018-06-27T01:15:29.787Z,0.00
2018-06-27T01:16:29.737Z,0.00
2018-06-27T01:17:29.730Z,0.00
2018-06-27T01:18:29.720Z,0.00
2018-06-27T01:19:29.706Z,0.00
2018-06-27T01:20:29.698Z,0.00
2018-06-27T01:21:29.701Z,0.00
2018-06-27T01:22:29.670Z,0.00
2018-06-27T01:23:29.666Z,0.00
2018-06-27T01:24:29.647Z,0.00
2018-06-27T01:25:29.634Z,0.00
2018-06-27T01:26:29.647Z,0.00
2018-06-27T01:28:40.963Z,0.00
2018-06-27T01:29:40.931Z,0.00
2018-06-27T01:30:40.921Z,0.00
2018-06-27T01:31:40.929Z,0.00
2018-06-27T01:32:40.894Z,0.00
2018-06-27T01:33:40.885Z,0.00
2018-06-27T01:34:40.874Z,0.00
2018-06-27T01:35:40.864Z,0.00
2018-06-27T01:36:40.871Z,0.00
2018-06-27T01:37:40.840Z,0.00
2018-06-27T01:38:40.829Z,0.00
2018-06-27T01:39:40.812Z,0.00
2018-06-27T01:40:40.808Z,0.00
2018-06-27T01:41:40.813Z,0.00
2018-06-27T01:43:52.183Z,0.00
2018-06-27T01:44:52.154Z,0.00
2018-06-27T01:45:52.190Z,0.00
2018-06-27T01:46:52.134Z,0.00
2018-06-27T01:47:52.114Z,0.00
2018-06-27T01:48:52.111Z,0.00
2018-06-27T01:49:52.100Z,0.00
2018-06-27T01:50:52.085Z,0.00
2018-06-27T01:51:52.109Z,0.00
2018-06-27T01:52:52.061Z,0.00
2018-06-27T01:53:52.057Z,0.00
2018-06-27T01:54:52.042Z,0.00
2018-06-27T01:55:52.031Z,0.00
2018-06-27T01:56:52.019Z,0.00
2018-06-27T01:59:03.321Z,0.00
2018-06-27T02:00:03.298Z,0.00
2018-06-27T02:01:03.287Z,0.00
2018-06-27T02:02:03.274Z,0.00
2018-06-27T02:03:03.290Z,0.00
2018-06-27T02:04:03.253Z,0.00
2018-06-27T02:05:03.244Z,0.00
2018-06-27T02:06:03.236Z,0.00
2018-06-27T02:07:03.221Z,0.00
2018-06-27T02:08:03.207Z,0.00
2018-06-27T02:09:03.217Z,0.00
2018-06-27T02:10:03.183Z,0.00
2018-06-27T02:11:03.175Z,0.00
2018-06-27T02:12:03.167Z,0.00
2018-06-27T02:14:14.647Z,0.00
2018-06-27T02:15:14.626Z,0.00
2018-06-27T02:16:14.612Z,0.00
2018-06-27T02:17:14.599Z,0.00
2018-06-27T02:18:14.604Z,0.00
2018-06-27T02:19:14.581Z,0.00
2018-06-27T02:20:14.569Z,0.00
2018-06-27T02:21:14.562Z,0.00
2018-06-27T02:22:14.546Z,0.00
2018-06-27T02:23:14.552Z,0.00
2018-06-27T02:24:14.525Z,0.00
2018-06-27T02:25:14.522Z,0.00
2018-06-27T02:26:14.511Z,0.00
2018-06-27T02:27:14.494Z,0.00
2018-06-27T02:29:26.033Z,0.00
2018-06-27T02:30:25.968Z,0.00
2018-06-27T02:31:25.957Z,0.00
2018-06-27T02:32:25.951Z,0.00
2018-06-27T02:33:25.960Z,0.00
2018-06-27T02:34:25.929Z,0.00
2018-06-27T02:35:25.916Z,0.00
2018-06-27T02:36:25.908Z,0.00
2018-06-27T02:37:25.898Z,0.00
2018-06-27T02:38:25.911Z,0.00
2018-06-27T02:39:25.878Z,0.00
2018-06-27T02:40:25.866Z,0.00
2018-06-27T02:41:25.851Z,0.00
2018-06-27T02:42:25.838Z,0.00
2018-06-27T02:44:37.196Z,0.00
2018-06-27T02:45:37.164Z,0.00
2018-06-27T02:46:37.143Z,0.00
2018-06-27T02:47:37.136Z,0.00
2018-06-27T02:48:37.173Z,5.62
2018-06-27T02:49:37.140Z,5.62
2018-06-27T02:50:37.104Z,5.62
2018-06-27T02:51:37.091Z,5.62
2018-06-27T02:52:37.084Z,5.62
2018-06-27T02:53:37.104Z,5.62
2018-06-27T02:54:37.065Z,5.62
2018-06-27T02:55:37.048Z,5.62
2018-06-27T02:56:37.039Z,5.62
2018-06-27T02:58:48.342Z,5.62
2018-06-27T02:59:48.299Z,11.25
2018-06-27T03:00:48.314Z,11.25
2018-06-27T03:01:48.279Z,11.25
2018-06-27T03:02:48.264Z,11.25
2018-06-27T03:03:48.276Z,11.25
2018-06-27T03:04:48.247Z,11.25
2018-06-27T03:05:48.238Z,11.25
2018-06-27T03:06:48.221Z,16.88
2018-06-27T03:07:48.214Z,16.88
2018-06-27T03:08:48.227Z,16.88
2018-06-27T03:09:48.193Z,16.88
2018-06-27T03:10:48.182Z,16.88
2018-06-27T03:11:48.169Z,16.88
2018-06-27T03:13:59.680Z,22.50
2018-06-27T03:14:59.649Z,22.50
2018-06-27T03:15:59.630Z,22.50
2018-06-27T03:16:59.627Z,22.50
2018-06-27T03:17:59.692Z,28.12
2018-06-27T03:18:59.606Z,28.12
2018-06-27T03:19:59.627Z,28.12
2018-06-27T03:20:59.579Z,28.12
2018-06-27T03:21:59.567Z,28.12
2018-06-27T03:22:59.556Z,33.75
2018-06-27T03:23:59.565Z,33.75
2018-06-27T03:24:59.549Z,33.75
2018-06-27T03:25:59.519Z,33.75
2018-06-27T03:26:59.513Z,33.75
2018-06-27T03:29:10.728Z,39.38
2018-06-27T03:30:10.694Z,39.38
2018-06-27T03:31:10.688Z,39.38
2018-06-27T03:32:10.678Z,39.38
2018-06-27T03:33:10.681Z,45.00
2018-06-27T03:34:10.649Z,45.00
2018-06-27T03:35:10.642Z,45.00
2018-06-27T03:36:10.644Z,45.00
2018-06-27T03:37:10.619Z,50.62
2018-06-27T03:38:10.641Z,50.62
2018-06-27T03:39:10.593Z,50.62
2018-06-27T03:40:10.582Z,56.25
2018-06-27T03:41:10.577Z,56.25
2018-06-27T03:42:10.557Z,56.25
2018-06-27T03:44:21.926Z,61.88
2018-06-27T03:45:21.892Z,61.88
2018-06-27T03:46:21.882Z,67.50
2018-06-27T03:47:21.868Z,67.50
2018-06-27T03:48:21.882Z,67.50
2018-06-27T03:49:21.843Z,67.50
2018-06-27T03:50:21.834Z,73.12
2018-06-27T03:51:21.831Z,73.12
2018-06-27T03:52:21.821Z,73.12
2018-06-27T03:53:21.835Z,67.50
2018-06-27T03:54:21.808Z,67.50
2018-06-27T03:55:21.798Z,67.50
2018-06-27T03:56:21.769Z,67.50
2018-06-27T03:57:21.770Z,67.50
2018-06-27T03:59:33.263Z,67.50
2018-06-27T04:00:33.223Z,67.50
2018-06-27T04:01:33.211Z,67.50
2018-06-27T04:02:33.201Z,67.50
2018-06-27T04:03:33.204Z,67.50
2018-06-27T04:04:33.183Z,67.50
2018-06-27T04:05:33.322Z,67.50
2018-06-27T04:06:33.157Z,73.12
2018-06-27T04:07:33.148Z,73.12
2018-06-27T04:08:33.174Z,73.12
2018-06-27T04:09:33.137Z,78.75
2018-06-27T04:10:33.121Z,78.75
2018-06-27T04:11:33.105Z,78.75
2018-06-27T04:12:33.168Z,78.75
2018-06-27T04:14:44.448Z,78.75
2018-06-27T04:15:44.476Z,78.75
2018-06-27T04:16:44.398Z,78.75
2018-06-27T04:17:44.399Z,78.75
2018-06-27T04:18:44.381Z,84.38
2018-06-27T04:19:44.394Z,84.38
2018-06-27T04:20:44.356Z,84.38
2018-06-27T04:21:44.350Z,84.38
2018-06-27T04:22:44.344Z,84.38
2018-06-27T04:23:44.329Z,84.38
2018-06-27T04:24:44.319Z,90.00
2018-06-27T04:25:44.335Z,90.00
2018-06-27T04:26:45.022Z,90.00
2018-06-27T04:27:44.285Z,90.00
2018-06-27T04:29:56.779Z,90.00
2018-06-27T04:30:56.761Z,90.00
2018-06-27T04:31:56.729Z,90.00
2018-06-27T04:32:56.720Z,90.00
2018-06-27T04:33:56.707Z,90.00
2018-06-27T04:34:56.692Z,90.00
2018-06-27T04:35:56.885Z,90.00
2018-06-27T04:36:56.674Z,90.00
2018-06-27T04:37:56.664Z,90.00
2018-06-27T04:38:56.658Z,90.00
2018-06-27T04:39:56.644Z,90.00
2018-06-27T04:40:56.656Z,90.00
2018-06-27T04:41:56.629Z,90.00
2018-06-27T04:44:08.251Z,95.62
2018-06-27T04:45:08.238Z,95.62
2018-06-27T04:46:08.209Z,101.25
2018-06-27T04:47:08.203Z,101.25
2018-06-27T04:48:08.190Z,101.25
2018-06-27T04:49:08.183Z,101.25
2018-06-27T04:50:08.191Z,95.62
2018-06-27T04:51:08.159Z,95.62
2018-06-27T04:52:08.151Z,95.62
2018-06-27T04:53:08.137Z,95.62
2018-06-27T04:54:08.139Z,95.62
2018-06-27T04:55:08.128Z,106.88
2018-06-27T04:56:08.107Z,106.88
2018-06-27T04:57:08.093Z,106.88
2018-06-27T04:59:20.444Z,106.88
2018-06-27T05:00:20.436Z,112.50
2018-06-27T05:01:20.407Z,101.25
2018-06-27T05:02:20.389Z,106.88
2018-06-27T05:03:20.372Z,112.50
2018-06-27T05:04:20.368Z,112.50
2018-06-27T05:05:20.398Z,112.50
2018-06-27T05:06:20.348Z,106.88
2018-06-27T05:07:20.330Z,106.88
2018-06-27T05:08:20.318Z,106.88
2018-06-27T05:09:20.309Z,106.88
2018-06-27T05:10:20.320Z,106.88
2018-06-27T05:11:20.317Z,112.50
2018-06-27T05:12:20.273Z,112.50
2018-06-27T05:14:31.010Z,106.88
2018-06-27T05:15:30.971Z,112.50
2018-06-27T05:16:31.003Z,118.12
2018-06-27T05:17:30.947Z,123.75
2018-06-27T05:18:30.940Z,123.75
2018-06-27T05:19:30.929Z,118.12
2018-06-27T05:20:30.916Z,118.12
2018-06-27T05:21:30.905Z,112.50
2018-06-27T05:22:30.915Z,123.75
2018-06-27T05:23:30.890Z,118.12
2018-06-27T05:24:30.877Z,118.12
2018-06-27T05:25:30.864Z,118.12
2018-06-27T05:26:30.843Z,118.12
2018-06-27T05:27:30.996Z,112.50
2018-06-27T05:29:42.197Z,112.50
2018-06-27T05:30:42.163Z,106.88
2018-06-27T05:31:42.154Z,112.50
2018-06-27T05:32:42.171Z,129.38
2018-06-27T05:33:42.126Z,135.00
2018-06-27T05:34:42.120Z,135.00
2018-06-27T05:35:42.111Z,135.00
2018-06-27T05:36:42.093Z,129.38
2018-06-27T05:37:42.130Z,140.62
2018-06-27T05:38:42.080Z,146.25
2018-06-27T05:39:42.065Z,146.25
2018-06-27T05:40:42.056Z,151.88
2018-06-27T05:41:42.045Z,157.50
2018-06-27T05:42:42.024Z,168.75
2018-06-27T05:44:53.491Z,146.25
2018-06-27T05:45:53.458Z,157.50
2018-06-27T05:46:53.449Z,157.50
2018-06-27T05:47:53.441Z,157.50
2018-06-27T05:48:53.460Z,151.88
2018-06-27T05:49:53.417Z,151.88
2018-06-27T05:50:53.403Z,151.88
2018-06-27T05:51:53.406Z,151.88
2018-06-27T05:52:53.388Z,163.12
2018-06-27T05:53:53.370Z,168.75
2018-06-27T05:54:53.389Z,174.38
2018-06-27T05:55:53.354Z,180.00
2018-06-27T05:56:53.337Z,180.00
2018-06-27T05:57:53.331Z,174.38
2018-06-27T07:30:04.235Z,281.25
2018-06-27T07:31:04.196Z,298.12
2018-06-27T07:32:04.186Z,264.38
2018-06-27T07:33:04.175Z,247.50
2018-06-27T07:34:04.181Z,258.75
2018-06-27T07:35:04.152Z,253.12
2018-06-27T07:36:04.154Z,303.75
2018-06-27T07:37:04.135Z,315.00
2018-06-27T07:38:04.128Z,303.75
2018-06-27T07:39:04.148Z,270.00
2018-06-27T07:40:04.112Z,247.50
2018-06-27T07:41:04.086Z,275.62
2018-06-27T07:42:04.072Z,270.00
2018-06-27T07:43:04.080Z,247.50
2018-06-27T07:45:15.599Z,230.62
2018-06-27T07:46:15.565Z,213.75
2018-06-27T07:47:15.556Z,208.12
2018-06-27T07:48:15.551Z,208.12
2018-06-27T07:49:15.536Z,191.25
2018-06-27T07:50:15.574Z,202.50
2018-06-27T07:51:15.515Z,236.25
2018-06-27T07:52:15.496Z,219.38
2018-06-27T07:53:15.489Z,225.00
2018-06-27T07:54:15.488Z,213.75
2018-06-27T07:55:15.479Z,236.25
2018-06-27T07:56:15.478Z,264.38
2018-06-27T07:57:15.478Z,292.50
2018-06-27T07:58:15.436Z,320.62
2018-06-27T08:00:26.945Z,270.00
2018-06-27T08:01:26.936Z,275.62
2018-06-27T08:02:26.908Z,309.38
2018-06-27T08:03:26.891Z,315.00
2018-06-27T08:04:26.882Z,281.25
2018-06-27T08:05:26.922Z,292.50
2018-06-27T08:06:26.887Z,303.75
2018-06-27T08:07:26.850Z,315.00
2018-06-27T08:08:26.847Z,326.25
2018-06-27T08:09:26.832Z,326.25
2018-06-27T08:10:26.834Z,343.12
2018-06-27T08:11:26.844Z,354.38
2018-06-27T08:12:26.933Z,292.50
2018-06-27T08:13:26.797Z,264.38
